createdAt,value
2019-04-10T00:01:21.055Z,27.50
2019-04-10T00:03:51.416Z,26.27
2019-04-10T00:06:21.777Z,28.23
2019-04-10T00:08:52.801Z,27.00
2019-04-10T00:11:24.925Z,27.53
2019-04-10T00:13:55.386Z,26.87
2019-04-10T00:16:25.705Z,26.70
2019-04-10T00:18:56.182Z,27.80
2019-04-10T00:21:26.638Z,28.83
2019-04-10T00:23:57.693Z,28.77
2019-04-10T00:26:28.129Z,27.93
2019-04-10T00:28:58.469Z,27.07
2019-04-10T00:31:29.807Z,27.63
2019-04-10T00:34:01.322Z,28.33
2019-04-10T00:36:31.536Z,28.23
2019-04-10T00:39:04.214Z,28.40
2019-04-10T00:41:36.515Z,28.20
2019-04-10T00:44:07.824Z,29.10
2019-04-10T00:46:38.214Z,29.07
2019-04-10T00:49:09.236Z,28.87
2019-04-10T00:51:39.718Z,29.10
2019-04-10T00:54:10.025Z,28.80
2019-04-10T00:56:41.656Z,30.37
2019-04-10T00:59:12.209Z,29.13
2019-04-10T01:01:43.633Z,29.43
2019-04-10T01:04:15.202Z,28.77
2019-04-10T01:06:46.299Z,29.70
2019-04-10T01:09:17.405Z,30.50
2019-04-10T01:11:47.925Z,29.10
2019-04-10T01:14:18.214Z,31.13
2019-04-10T01:16:49.384Z,30.73
2019-04-10T01:19:20.820Z,31.07
2019-04-10T01:21:51.045Z,30.23
2019-04-10T01:24:21.680Z,29.70
2019-04-10T01:26:53.786Z,29.60
2019-04-10T01:29:25.161Z,30.57
2019-04-10T01:32:15.416Z,31.27
2019-04-10T01:34:45.881Z,30.60
2019-04-10T01:37:16.655Z,30.73
2019-04-10T01:39:48.614Z,31.40
2019-04-10T01:42:18.912Z,29.13
2019-04-10T01:44:49.130Z,30.60
2019-04-10T01:47:19.539Z,29.60
2019-04-10T01:49:50.307Z,30.47
2019-04-10T01:52:20.797Z,31.40
2019-04-10T01:54:51.319Z,33.50
2019-04-10T01:57:21.952Z,32.00
2019-04-10T01:59:52.279Z,33.07
2019-04-10T02:02:32.249Z,32.97
2019-04-10T02:05:03.941Z,33.87
2019-04-10T02:07:34.517Z,32.57
2019-04-10T02:10:05.426Z,31.87
2019-04-10T02:12:36.535Z,34.00
2019-04-10T02:15:11.222Z,32.70
2019-04-10T02:17:40.759Z,33.70
2019-04-10T02:20:12.509Z,33.67
2019-04-10T02:22:42.895Z,33.63
2019-04-10T02:25:13.799Z,32.07
2019-04-10T02:27:44.699Z,33.30
2019-04-10T02:30:17.564Z,31.70
2019-04-10T02:32:50.215Z,34.27
2019-04-10T02:35:22.074Z,33.90
2019-04-10T02:37:55.418Z,34.37
2019-04-10T02:40:25.359Z,33.80
2019-04-10T02:42:56.668Z,32.90
2019-04-10T02:45:26.998Z,32.90
2019-04-10T02:47:57.312Z,33.47
2019-04-10T02:50:29.279Z,34.53
2019-04-10T02:53:01.232Z,33.60
2019-04-10T02:55:33.159Z,35.53
2019-04-10T02:58:03.634Z,34.57
2019-04-10T03:00:35.531Z,35.67
2019-04-10T03:03:06.510Z,32.33
2019-04-10T03:05:38.269Z,31.57
2019-04-10T03:08:09.389Z,32.90
2019-04-10T03:10:49.406Z,33.07
2019-04-10T03:13:14.333Z,32.20
2019-04-10T03:15:45.076Z,32.87
2019-04-10T03:18:15.469Z,32.30
2019-04-10T03:20:46.780Z,32.13
2019-04-10T03:23:18.202Z,32.87
2019-04-10T03:25:48.855Z,31.00
2019-04-10T03:28:19.192Z,33.50
2019-04-10T03:30:49.595Z,31.17
2019-04-10T03:33:47.579Z,34.30
2019-04-10T03:36:17.281Z,32.47
2019-04-10T03:38:56.804Z,30.90
2019-04-10T03:41:19.851Z,32.73
2019-04-10T03:43:50.142Z,32.17
2019-04-10T03:46:21.425Z,32.33
2019-04-10T03:48:51.747Z,32.93
2019-04-10T03:51:22.864Z,33.93
2019-04-10T03:53:54.206Z,33.97
2019-04-10T03:56:25.486Z,32.90
2019-04-10T03:58:55.936Z,34.00
2019-04-10T04:01:26.934Z,34.60
2019-04-10T04:03:57.305Z,34.57
2019-04-10T04:06:39.853Z,37.23
2019-04-10T04:09:12.003Z,34.17
2019-04-10T04:11:42.050Z,36.73
2019-04-10T04:14:12.409Z,35.93
2019-04-10T04:16:43.718Z,36.60
2019-04-10T04:19:13.955Z,35.30
2019-04-10T04:21:44.209Z,37.07
2019-04-10T04:24:15.509Z,35.67
2019-04-10T04:26:46.520Z,37.73
2019-04-10T04:29:16.966Z,37.07
2019-04-10T04:31:47.181Z,37.73
2019-04-10T04:34:29.206Z,36.20
2019-04-10T04:37:00.354Z,36.27
2019-04-10T04:39:31.579Z,37.53
2019-04-10T04:42:02.973Z,36.00
2019-04-10T04:44:33.478Z,37.93
2019-04-10T04:47:03.684Z,38.90
2019-04-10T04:49:34.014Z,37.53
2019-04-10T04:52:04.379Z,36.63
2019-04-10T04:54:34.613Z,37.13
2019-04-10T04:57:04.839Z,35.03
2019-04-10T04:59:35.181Z,36.80
2019-04-10T05:02:06.632Z,38.00
2019-04-10T05:04:37.514Z,38.40
2019-04-10T05:07:08.345Z,37.97
2019-04-10T05:09:40.324Z,34.90
2019-04-10T05:12:11.328Z,35.50
2019-04-10T05:14:41.912Z,39.07
2019-04-10T05:17:15.000Z,34.90
2019-04-10T05:19:44.730Z,36.00
2019-04-10T05:22:15.077Z,35.20
2019-04-10T05:24:45.312Z,33.77
2019-04-10T05:27:16.081Z,33.97
2019-04-10T05:29:47.160Z,33.67
2019-04-10T05:32:17.858Z,33.63
2019-04-10T05:34:50.318Z,32.93
2019-04-10T05:37:21.263Z,32.50
2019-04-10T05:39:52.585Z,31.37
2019-04-10T05:42:24.788Z,31.77
2019-04-10T05:44:55.158Z,34.03
2019-04-10T05:47:26.208Z,33.83
2019-04-10T05:49:57.706Z,32.23
2019-04-10T05:52:28.938Z,31.70
2019-04-10T05:54:59.991Z,32.13
2019-04-10T05:57:30.785Z,31.00
2019-04-10T06:00:20.850Z,31.57
2019-04-10T06:02:52.158Z,29.80
2019-04-10T06:05:22.674Z,34.10
2019-04-10T06:07:53.832Z,30.80
2019-04-10T06:10:24.697Z,30.30
2019-04-10T06:12:55.131Z,28.53
2019-04-10T06:15:26.516Z,28.73
2019-04-10T06:17:58.721Z,28.37
2019-04-10T06:20:29.286Z,27.43
2019-04-10T06:23:01.735Z,26.53
2019-04-10T06:25:35.383Z,27.43
2019-04-10T06:28:05.214Z,27.23
2019-04-10T06:30:36.324Z,26.33
2019-04-10T06:33:07.544Z,28.03
2019-04-10T06:35:37.909Z,27.63
2019-04-10T06:38:08.169Z,27.93
2019-04-10T06:40:38.718Z,26.70
2019-04-10T06:43:09.068Z,25.00
2019-04-10T06:45:40.513Z,27.40
2019-04-10T06:48:10.953Z,25.43
2019-04-10T06:50:41.536Z,26.43
2019-04-10T06:53:13.247Z,24.87
2019-04-10T06:55:44.855Z,24.67
2019-04-10T06:58:27.626Z,25.60
2019-04-10T07:00:58.919Z,26.50
2019-04-10T07:03:46.767Z,25.67
2019-04-10T07:06:09.769Z,25.77
2019-04-10T07:08:34.215Z,22.70
2019-04-10T07:11:09.006Z,22.50
2019-04-10T07:13:39.551Z,22.70
2019-04-10T07:16:10.219Z,21.23
2019-04-10T07:18:41.215Z,22.00
2019-04-10T07:21:12.545Z,21.50
2019-04-10T07:23:43.054Z,21.70
2019-04-10T07:26:18.551Z,20.67
2019-04-10T07:28:47.237Z,20.83
2019-04-10T07:31:17.617Z,20.57
2019-04-10T07:33:50.445Z,21.30
2019-04-10T07:36:20.744Z,21.00
2019-04-10T07:38:53.902Z,21.50
2019-04-10T07:41:25.931Z,21.43
2019-04-10T07:43:56.763Z,21.10
2019-04-10T07:46:28.294Z,20.43
2019-04-10T07:49:00.662Z,20.93
2019-04-10T07:51:32.197Z,20.00
2019-04-10T07:54:02.432Z,19.90
2019-04-10T07:56:33.299Z,20.00
2019-04-10T07:59:04.644Z,18.90
2019-04-10T08:01:35.427Z,19.80
2019-04-10T08:04:06.286Z,19.20
2019-04-10T08:06:37.398Z,18.73
2019-04-10T08:09:08.689Z,18.93
2019-04-10T08:11:40.106Z,20.07
2019-04-10T08:14:11.033Z,20.07
2019-04-10T08:16:41.467Z,19.63
2019-04-10T08:19:12.407Z,20.73
2019-04-10T08:21:42.839Z,20.63
2019-04-10T08:24:13.531Z,20.13
2019-04-10T08:26:45.047Z,19.43
2019-04-10T08:29:16.207Z,18.67
2019-04-10T08:31:46.603Z,19.67
2019-04-10T08:34:17.283Z,19.10
2019-04-10T08:36:47.952Z,19.17
2019-04-10T08:39:32.190Z,19.23
2019-04-10T08:41:50.317Z,18.70
2019-04-10T08:44:20.611Z,18.27
2019-04-10T08:46:50.913Z,20.90
2019-04-10T08:49:21.397Z,19.33
2019-04-10T08:51:52.150Z,19.00
2019-04-10T08:54:22.472Z,19.93
2019-04-10T08:56:54.712Z,18.37
2019-04-10T08:59:25.077Z,18.83
2019-04-10T09:01:55.760Z,19.13
2019-04-10T09:04:26.110Z,19.63
2019-04-10T09:06:56.445Z,20.20
2019-04-10T09:09:27.776Z,19.13
2019-04-10T09:11:58.130Z,18.07
2019-04-10T09:14:29.476Z,18.40
2019-04-10T09:17:00.727Z,16.77
2019-04-10T09:19:31.996Z,17.63
2019-04-10T09:22:02.279Z,17.97
2019-04-10T09:24:32.596Z,18.90
2019-04-10T09:27:02.854Z,17.93
2019-04-10T09:29:33.117Z,17.70
2019-04-10T09:32:04.982Z,17.63
2019-04-10T09:34:35.987Z,18.17
2019-04-10T09:37:06.503Z,18.10
2019-04-10T09:39:36.853Z,16.87
2019-04-10T09:42:07.092Z,17.47
2019-04-10T09:44:37.960Z,16.63
2019-04-10T09:47:08.348Z,16.97
2019-04-10T09:49:43.137Z,16.70
2019-04-10T09:52:10.882Z,16.40
2019-04-10T09:54:41.159Z,16.90
2019-04-10T09:57:11.429Z,15.90
2019-04-10T09:59:42.634Z,16.57
2019-04-10T10:02:13.243Z,16.07
2019-04-10T10:04:43.937Z,17.10
2019-04-10T10:07:16.399Z,16.47
2019-04-10T10:09:47.261Z,15.67
2019-04-10T10:12:17.993Z,15.83
2019-04-10T10:15:07.675Z,16.70
2019-04-10T10:17:39.064Z,15.87
2019-04-10T10:20:11.331Z,16.07
2019-04-10T10:22:41.820Z,16.83
2019-04-10T10:25:13.164Z,17.03
2019-04-10T10:27:44.664Z,16.50
2019-04-10T10:30:15.807Z,17.23
2019-04-10T10:32:48.850Z,15.80
2019-04-10T10:35:20.619Z,15.97
2019-04-10T10:37:52.678Z,16.73
2019-04-10T10:40:23.528Z,15.47
2019-04-10T10:42:54.068Z,16.27
2019-04-10T10:45:25.028Z,15.87
2019-04-10T10:47:55.383Z,14.97
2019-04-10T10:50:26.130Z,15.57
2019-04-10T10:52:57.646Z,15.13
2019-04-10T10:55:27.997Z,15.60
2019-04-10T10:57:58.255Z,15.87
2019-04-10T11:00:29.415Z,16.03
2019-04-10T11:03:00.212Z,15.97
2019-04-10T11:05:31.860Z,15.97
2019-04-10T11:08:02.771Z,14.90
2019-04-10T11:10:33.857Z,15.37
2019-04-10T11:13:04.407Z,14.83
2019-04-10T11:15:34.730Z,14.70
2019-04-10T11:18:06.424Z,14.40
2019-04-10T11:20:37.056Z,14.47
2019-04-10T11:23:07.456Z,14.73
2019-04-10T11:25:37.887Z,14.40
2019-04-10T11:28:08.129Z,13.70
2019-04-10T11:30:38.414Z,15.47
2019-04-10T11:33:08.782Z,14.53
2019-04-10T11:35:39.668Z,15.60
2019-04-10T11:38:10.942Z,14.13
2019-04-10T11:40:42.211Z,14.03
2019-04-10T11:43:13.568Z,14.63
2019-04-10T11:45:51.246Z,13.30
2019-04-10T11:48:18.231Z,14.60
2019-04-10T11:50:48.543Z,13.77
2019-04-10T11:53:19.093Z,14.27
2019-04-10T11:55:52.445Z,14.00
2019-04-10T11:58:22.404Z,15.37
2019-04-10T12:00:57.348Z,15.13
2019-04-10T12:03:26.919Z,14.50
2019-04-10T12:05:59.590Z,13.90
2019-04-10T12:08:55.373Z,13.87
2019-04-10T12:13:33.201Z,14.77
2019-04-10T12:16:03.738Z,14.60
2019-04-10T12:18:35.052Z,14.17
2019-04-10T12:21:07.354Z,14.10
2019-04-10T12:23:37.858Z,14.97
2019-04-10T12:26:08.102Z,13.93
2019-04-10T12:28:38.393Z,13.97
2019-04-10T12:31:09.979Z,14.27
2019-04-10T12:33:40.347Z,13.77
2019-04-10T12:36:12.154Z,13.83
2019-04-10T12:38:43.492Z,14.17
2019-04-10T12:41:14.941Z,14.47
2019-04-10T12:43:47.415Z,13.87
2019-04-10T12:46:19.235Z,13.77
2019-04-10T12:48:50.614Z,14.53
2019-04-10T12:51:21.512Z,14.13
2019-04-10T12:53:52.094Z,15.00
2019-04-10T12:56:22.371Z,14.27
2019-04-10T12:58:53.047Z,14.07
2019-04-10T13:01:24.440Z,13.73
2019-04-10T13:03:55.687Z,15.27
2019-04-10T13:06:26.292Z,15.37
2019-04-10T13:09:07.378Z,14.20
2019-04-10T13:11:29.784Z,13.70
2019-04-10T13:14:00.154Z,13.67
2019-04-10T13:16:30.551Z,13.97
2019-04-10T13:19:00.850Z,13.30
2019-04-10T13:21:31.258Z,13.53
2019-04-10T13:24:01.719Z,14.27
2019-04-10T13:26:32.327Z,13.97
2019-04-10T13:29:03.631Z,13.77
2019-04-10T13:31:35.743Z,13.50
2019-04-10T13:34:06.106Z,15.13
2019-04-10T13:36:37.656Z,13.13
2019-04-10T13:39:08.739Z,13.70
2019-04-10T13:41:40.755Z,14.50
2019-04-10T13:44:11.106Z,14.10
2019-04-10T13:46:41.389Z,14.03
2019-04-10T13:49:11.714Z,14.07
2019-04-10T13:51:42.313Z,14.80
2019-04-10T13:54:15.036Z,13.37
2019-04-10T13:56:45.400Z,12.93
2019-04-10T13:59:20.613Z,13.53
2019-04-10T14:01:52.175Z,13.07
2019-04-10T14:04:22.929Z,14.13
2019-04-10T14:06:53.626Z,14.83
2019-04-10T14:09:34.401Z,13.90
2019-04-10T14:11:56.156Z,14.50
2019-04-10T14:14:26.741Z,13.80
2019-04-10T14:16:57.302Z,13.37
2019-04-10T14:19:29.870Z,13.50
2019-04-10T14:22:00.277Z,13.20
2019-04-10T14:24:40.151Z,13.27
2019-04-10T14:27:18.191Z,13.47
2019-04-10T14:29:49.699Z,13.43
2019-04-10T14:32:37.626Z,14.57
2019-04-10T14:35:09.828Z,13.97
2019-04-10T14:37:41.297Z,13.33
2019-04-10T14:40:12.229Z,14.37
2019-04-10T14:42:44.207Z,13.37
2019-04-10T14:45:14.623Z,13.03
2019-04-10T14:47:45.028Z,13.07
2019-04-10T14:50:15.714Z,13.30
2019-04-10T14:52:47.542Z,13.83
2019-04-10T14:55:20.311Z,12.97
2019-04-10T14:57:50.915Z,12.43
2019-04-10T15:00:39.164Z,12.80
2019-04-10T15:03:09.553Z,12.30
2019-04-10T15:05:47.816Z,13.23
2019-04-10T15:08:12.284Z,12.13
2019-04-10T15:10:42.728Z,12.60
2019-04-10T15:13:17.726Z,13.33
2019-04-10T15:15:45.122Z,13.27
2019-04-10T15:18:16.548Z,12.23
2019-04-10T15:20:47.275Z,12.07
2019-04-10T15:23:18.233Z,12.33
2019-04-10T15:25:49.274Z,12.10
2019-04-10T15:28:19.715Z,10.90
2019-04-10T15:30:50.815Z,10.57
2019-04-10T15:33:21.163Z,11.17
2019-04-10T15:35:53.372Z,11.20
2019-04-10T15:38:24.152Z,11.20
2019-04-10T15:40:54.661Z,11.27
2019-04-10T15:43:26.389Z,10.93
2019-04-10T15:45:57.228Z,10.50
2019-04-10T15:48:27.530Z,10.27
2019-04-10T15:50:58.068Z,12.10
2019-04-10T15:53:28.668Z,11.60
2019-04-10T15:55:59.085Z,12.83
2019-04-10T15:58:29.496Z,12.20
2019-04-10T16:00:59.820Z,12.80
2019-04-10T16:03:30.382Z,12.47
2019-04-10T16:06:00.854Z,12.87
2019-04-10T16:08:32.379Z,12.80
2019-04-10T16:11:12.012Z,13.77
2019-04-10T16:13:44.537Z,12.03
2019-04-10T16:16:49.217Z,13.07
2019-04-10T16:19:36.695Z,12.47
2019-04-10T16:22:15.106Z,11.73
2019-04-10T16:24:47.141Z,12.07
2019-04-10T16:27:18.058Z,12.27
2019-04-10T16:29:48.974Z,12.20
2019-04-10T16:32:21.023Z,12.40
2019-04-10T16:34:51.504Z,12.57
2019-04-10T16:37:22.908Z,12.90
2019-04-10T16:40:00.361Z,12.40
2019-04-10T16:42:26.452Z,12.90
2019-04-10T16:44:57.636Z,13.10
2019-04-10T16:47:28.270Z,12.37
2019-04-10T16:49:59.283Z,12.47
2019-04-10T16:52:31.206Z,13.13
2019-04-10T16:55:02.801Z,12.77
2019-04-10T16:57:34.489Z,12.63
2019-04-10T17:00:06.942Z,12.77
2019-04-10T17:02:37.390Z,12.00
2019-04-10T17:05:09.078Z,12.27
2019-04-10T17:07:41.261Z,13.10
2019-04-10T17:10:18.230Z,12.30
2019-04-10T17:12:44.922Z,11.27
2019-04-10T17:15:17.758Z,12.57
2019-04-10T17:17:48.499Z,11.43
2019-04-10T17:20:18.811Z,11.77
2019-04-10T17:22:51.963Z,11.17
2019-04-10T17:25:24.387Z,12.20
2019-04-10T17:27:54.755Z,12.47
2019-04-10T17:30:25.535Z,11.40
2019-04-10T17:32:56.378Z,11.47
2019-04-10T17:35:27.584Z,11.77
2019-04-10T17:37:58.566Z,11.63
2019-04-10T17:40:35.475Z,12.40
2019-04-10T17:43:01.051Z,12.00
2019-04-10T17:45:31.603Z,11.97
2019-04-10T17:48:03.192Z,11.83
2019-04-10T17:50:33.709Z,11.77
2019-04-10T17:53:05.114Z,10.87
2019-04-10T17:55:35.773Z,11.83
2019-04-10T17:58:07.334Z,12.43
2019-04-10T18:00:45.694Z,11.50
2019-04-10T18:03:18.544Z,11.27
2019-04-10T18:05:48.830Z,10.80
2019-04-10T18:08:19.271Z,11.53
2019-04-10T18:10:52.627Z,11.17
2019-04-10T18:13:22.447Z,10.53
2019-04-10T18:15:54.135Z,11.80
2019-04-10T18:18:25.061Z,10.87
2019-04-10T18:20:56.070Z,11.07
2019-04-10T18:23:27.226Z,11.60
2019-04-10T18:25:58.317Z,10.83
2019-04-10T18:28:31.015Z,11.23
2019-04-10T18:31:01.111Z,10.90
2019-04-10T18:33:34.831Z,9.90
2019-04-10T18:36:05.263Z,11.33
2019-04-10T18:38:35.639Z,10.90
2019-04-10T18:41:08.594Z,10.73
2019-04-10T18:43:38.431Z,10.97
2019-04-10T18:46:14.343Z,11.13
2019-04-10T18:48:44.209Z,11.27
2019-04-10T18:51:13.996Z,11.33
2019-04-10T18:53:45.650Z,11.83
2019-04-10T18:56:16.676Z,11.17
2019-04-10T18:59:06.300Z,10.90
2019-04-10T19:02:01.556Z,10.67
2019-04-10T19:04:51.672Z,11.50
2019-04-10T19:07:23.065Z,11.80
2019-04-10T19:09:54.650Z,11.77
2019-04-10T19:12:26.393Z,12.43
2019-04-10T19:14:56.872Z,12.07
2019-04-10T19:17:27.189Z,11.30
2019-04-10T19:19:58.723Z,11.10
2019-04-10T19:22:42.321Z,10.63
2019-04-10T19:25:12.875Z,10.80
2019-04-10T19:27:44.450Z,11.33
2019-04-10T19:30:33.513Z,11.03
2019-04-10T19:33:03.934Z,11.03
2019-04-10T19:35:35.103Z,11.33
2019-04-10T19:38:05.875Z,11.40
2019-04-10T19:40:38.347Z,10.80
2019-04-10T19:43:08.527Z,11.20
2019-04-10T19:45:39.791Z,11.10
2019-04-10T19:48:10.830Z,10.57
2019-04-10T19:50:41.526Z,11.20
2019-04-10T19:53:13.201Z,10.87
2019-04-10T19:55:44.135Z,11.37
2019-04-10T19:58:14.753Z,11.07
2019-04-10T20:00:46.499Z,11.00
2019-04-10T20:03:18.134Z,11.63
2019-04-10T20:05:49.337Z,11.23
2019-04-10T20:08:19.693Z,10.97
2019-04-10T20:10:50.143Z,11.17
2019-04-10T20:13:22.736Z,11.23
2019-04-10T20:15:53.220Z,10.83
2019-04-10T20:18:25.122Z,11.00
2019-04-10T20:21:01.700Z,10.87
2019-04-10T20:23:32.498Z,11.43
2019-04-10T20:26:05.731Z,11.03
2019-04-10T20:28:36.609Z,11.13
2019-04-10T20:31:09.859Z,11.33
2019-04-10T20:33:41.011Z,11.00
2019-04-10T20:36:11.586Z,11.60
2019-04-10T20:38:42.992Z,12.00
2019-04-10T20:41:14.129Z,11.47
2019-04-10T20:43:44.875Z,11.50
2019-04-10T20:46:15.236Z,11.50
2019-04-10T20:48:46.846Z,12.10
2019-04-10T20:51:17.199Z,11.67
2019-04-10T20:53:48.457Z,12.23
2019-04-10T20:56:20.438Z,11.93
2019-04-10T20:58:50.689Z,12.03
2019-04-10T21:01:22.290Z,11.70
2019-04-10T21:03:55.000Z,11.90
2019-04-10T21:06:25.500Z,12.43
2019-04-10T21:08:56.559Z,11.63
2019-04-10T21:11:27.116Z,13.03
2019-04-10T21:13:58.598Z,12.63
2019-04-10T21:16:29.127Z,14.13
2019-04-10T21:19:00.256Z,12.40
2019-04-10T21:21:30.802Z,12.33
2019-04-10T21:24:04.861Z,12.43
2019-04-10T21:26:35.367Z,12.97
2019-04-10T21:29:09.425Z,11.53
2019-04-10T21:32:03.098Z,11.70
2019-04-10T21:34:37.185Z,11.73
2019-04-10T21:37:08.091Z,11.20
2019-04-10T21:39:38.619Z,11.60
2019-04-10T21:42:17.945Z,12.57
2019-04-10T21:44:41.115Z,11.50
2019-04-10T21:47:13.034Z,11.73
2019-04-10T21:49:44.206Z,11.93
2019-04-10T21:52:14.631Z,11.77
2019-04-10T21:54:51.102Z,11.93
2019-04-10T21:57:18.195Z,11.80
2019-04-10T21:59:49.638Z,11.97
2019-04-10T22:02:20.119Z,12.57
2019-04-10T22:04:50.363Z,12.43
2019-04-10T22:07:30.269Z,13.27
2019-04-10T22:10:19.642Z,13.30
2019-04-10T22:12:52.216Z,13.37
2019-04-10T22:15:28.963Z,13.17
2019-04-10T22:17:59.323Z,13.53
2019-04-10T22:20:29.783Z,13.77
2019-04-10T22:23:00.155Z,14.37
2019-04-10T22:25:31.789Z,14.37
2019-04-10T22:28:15.212Z,14.13
2019-04-10T22:30:45.729Z,12.87
2019-04-10T22:33:16.133Z,12.67
2019-04-10T22:35:46.452Z,12.67
2019-04-10T22:38:17.882Z,12.60
2019-04-10T22:40:55.968Z,12.30
2019-04-10T22:43:44.926Z,12.17
2019-04-10T22:46:15.454Z,11.63
2019-04-10T22:48:47.695Z,12.17
2019-04-10T22:51:19.222Z,12.67
2019-04-10T22:53:50.056Z,11.83
2019-04-10T22:56:20.979Z,12.87
2019-04-10T22:58:51.435Z,12.83
2019-04-10T23:01:22.732Z,11.63
2019-04-10T23:03:53.227Z,12.73
2019-04-10T23:06:23.530Z,12.27
2019-04-10T23:08:53.790Z,12.80
2019-04-10T23:11:31.732Z,12.87
2019-04-10T23:13:56.403Z,12.97
2019-04-10T23:16:26.862Z,12.97
2019-04-10T23:18:58.165Z,12.33
2019-04-10T23:21:30.408Z,12.77
2019-04-10T23:24:00.841Z,12.70
2019-04-10T23:26:31.242Z,13.37
2019-04-10T23:29:02.092Z,12.93
2019-04-10T23:31:32.553Z,12.77
2019-04-10T23:34:02.807Z,13.20
2019-04-10T23:36:34.031Z,12.60
2019-04-10T23:39:06.433Z,13.20
2019-04-10T23:41:37.824Z,11.73
2019-04-10T23:44:08.958Z,12.47
2019-04-10T23:46:39.946Z,12.67
2019-04-10T23:49:11.160Z,13.00
2019-04-10T23:51:41.612Z,12.93
2019-04-10T23:54:13.100Z,12.77
2019-04-10T23:56:45.619Z,12.83
2019-04-10T23:59:15.762Z,13.70
